createdAt,value
2018-09-10T00:00:42.164Z,15.50
2018-09-10T00:03:11.722Z,15.60
2018-09-10T00:10:36.800Z,15.60
2018-09-10T00:13:06.334Z,15.40
2018-09-10T00:15:35.923Z,15.50
2018-09-10T00:18:05.501Z,15.50
2018-09-10T00:20:35.088Z,15.40
2018-09-10T00:23:04.612Z,15.40
2018-09-10T00:25:34.183Z,15.50
2018-09-10T00:28:03.702Z,15.40
2018-09-10T00:30:33.147Z,15.40
2018-09-10T00:33:02.711Z,15.40
2018-09-10T00:35:32.144Z,15.30
2018-09-10T00:38:01.711Z,15.20
2018-09-10T00:40:31.276Z,15.10
2018-09-10T00:43:00.882Z,15.00
2018-09-10T00:45:30.287Z,14.90
2018-09-10T00:47:59.848Z,14.90
2018-09-10T00:50:29.382Z,14.90
2018-09-10T00:52:58.943Z,14.90
2018-09-10T00:55:28.523Z,14.80
2018-09-10T00:57:57.983Z,14.80
2018-09-10T01:00:27.535Z,14.70
2018-09-10T01:02:57.090Z,14.70
2018-09-10T01:05:26.550Z,14.80
2018-09-10T01:07:56.172Z,14.90
2018-09-10T01:10:25.781Z,14.90
2018-09-10T01:12:55.358Z,15.00
2018-09-10T01:15:24.903Z,15.20
2018-09-10T01:17:54.497Z,15.10
2018-09-10T01:20:24.024Z,15.20
2018-09-10T01:22:53.571Z,15.20
2018-09-10T01:25:23.431Z,15.30
2018-09-10T01:27:53.027Z,15.30
2018-09-10T01:30:22.560Z,15.40
2018-09-10T01:32:52.114Z,15.50
2018-09-10T01:35:21.519Z,15.60
2018-09-10T01:37:50.962Z,15.60
2018-09-10T01:40:20.415Z,15.70
2018-09-10T01:42:49.870Z,15.70
2018-09-10T01:45:19.560Z,15.80
2018-09-10T01:47:49.208Z,15.80
2018-09-10T01:50:18.740Z,15.90
2018-09-10T01:52:48.406Z,15.90
2018-09-10T01:55:17.889Z,15.90
2018-09-10T01:57:47.432Z,15.90
2018-09-10T02:00:17.756Z,15.90
2018-09-10T02:02:47.304Z,15.80
2018-09-10T02:05:16.902Z,15.70
2018-09-10T02:07:46.426Z,15.70
2018-09-10T02:10:16.021Z,15.80
2018-09-10T02:12:45.603Z,15.80
2018-09-10T02:15:15.643Z,15.80
2018-09-10T02:17:45.244Z,15.80
2018-09-10T02:20:15.637Z,15.90
2018-09-10T02:22:45.038Z,15.90
2018-09-10T02:25:15.578Z,15.90
2018-09-10T02:27:45.110Z,15.90
2018-09-10T02:30:15.741Z,15.90
2018-09-10T02:32:51.855Z,15.90
2018-09-10T02:35:21.436Z,15.90
2018-09-10T02:37:50.816Z,15.90
2018-09-10T02:40:20.413Z,15.90
2018-09-10T02:42:56.175Z,15.90
2018-09-10T02:45:25.659Z,15.80
2018-09-10T02:47:55.230Z,15.90
2018-09-10T02:50:24.783Z,15.80
2018-09-10T02:52:54.311Z,15.70
2018-09-10T02:55:23.876Z,15.70
2018-09-10T02:57:53.320Z,15.70
2018-09-10T03:00:25.222Z,15.70
2018-09-10T03:02:55.162Z,15.70
2018-09-10T03:05:24.737Z,15.80
2018-09-10T03:07:54.355Z,15.80
2018-09-10T03:10:23.942Z,15.80
2018-09-10T03:12:54.742Z,15.80
2018-09-10T03:15:24.378Z,15.80
2018-09-10T03:17:53.913Z,15.80
2018-09-10T03:20:23.873Z,15.80
2018-09-10T03:22:53.416Z,15.80
2018-09-10T03:25:23.050Z,15.80
2018-09-10T03:27:52.610Z,15.80
2018-09-10T03:30:22.187Z,15.70
2018-09-10T03:32:51.791Z,15.70
2018-09-10T03:35:21.390Z,15.70
2018-09-10T03:37:50.756Z,15.70
2018-09-10T03:40:20.575Z,15.70
2018-09-10T03:42:50.953Z,15.60
2018-09-10T03:45:20.401Z,15.60
2018-09-10T03:47:49.743Z,15.60
2018-09-10T03:50:19.191Z,15.50
2018-09-10T03:52:48.547Z,15.40
2018-09-10T03:55:18.085Z,15.30
2018-09-10T03:57:47.664Z,15.30
2018-09-10T04:00:17.198Z,15.20
2018-09-10T04:02:46.602Z,15.20
2018-09-10T04:05:16.191Z,15.10
2018-09-10T04:07:45.751Z,15.20
2018-09-10T04:10:15.923Z,15.30
2018-09-10T04:12:45.327Z,15.30
2018-09-10T04:15:15.835Z,15.40
2018-09-10T04:17:45.416Z,15.40
2018-09-10T04:20:15.988Z,15.40
2018-09-10T04:22:45.580Z,15.40
2018-09-10T04:25:15.998Z,15.30
2018-09-10T04:27:45.730Z,15.30
2018-09-10T04:30:16.442Z,15.10
2018-09-10T04:32:45.994Z,15.00
2018-09-10T04:35:16.053Z,14.90
2018-09-10T04:37:45.555Z,14.80
2018-09-10T04:40:15.970Z,14.60
2018-09-10T04:42:45.499Z,14.60
2018-09-10T04:45:15.820Z,14.60
2018-09-10T04:47:45.238Z,14.60
2018-09-10T04:50:14.778Z,14.70
2018-09-10T04:52:44.167Z,14.70
2018-09-10T04:55:14.486Z,14.70
2018-09-10T04:57:43.862Z,14.70
2018-09-10T05:00:13.549Z,14.80
2018-09-10T05:02:43.119Z,14.80
2018-09-10T05:05:12.518Z,14.90
2018-09-10T05:07:42.031Z,14.90
2018-09-10T05:10:11.567Z,15.00
2018-09-10T05:12:41.011Z,15.10
2018-09-10T05:15:10.607Z,15.20
2018-09-10T05:17:40.091Z,15.20
2018-09-10T05:20:09.654Z,15.40
2018-09-10T05:22:39.256Z,15.40
2018-09-10T05:25:08.760Z,15.50
2018-09-10T05:27:38.286Z,15.60
2018-09-10T05:30:07.810Z,15.60
2018-09-10T05:32:37.183Z,15.70
2018-09-10T05:35:06.586Z,15.70
2018-09-10T05:37:35.957Z,15.70
2018-09-10T05:40:06.935Z,15.70
2018-09-10T05:42:36.363Z,15.80
2018-09-10T05:45:06.782Z,15.80
2018-09-10T05:47:36.265Z,15.90
2018-09-10T05:50:05.787Z,15.80
2018-09-10T05:52:35.293Z,15.80
2018-09-10T05:55:04.731Z,15.80
2018-09-10T05:57:34.553Z,15.80
2018-09-10T06:00:04.119Z,15.80
2018-09-10T06:02:33.494Z,15.80
2018-09-10T06:05:03.014Z,15.80
2018-09-10T06:07:34.136Z,15.80
2018-09-10T06:10:03.743Z,15.80
2018-09-10T06:12:33.068Z,15.80
2018-09-10T06:15:02.570Z,15.80
2018-09-10T06:17:31.983Z,15.90
2018-09-10T06:20:01.536Z,15.90
2018-09-10T06:22:31.080Z,16.00
2018-09-10T06:25:00.414Z,16.00
2018-09-10T06:27:29.819Z,16.10
2018-09-10T06:29:59.351Z,16.20
2018-09-10T06:32:28.770Z,16.40
2018-09-10T06:34:58.203Z,16.60
2018-09-10T06:37:27.767Z,16.90
2018-09-10T06:39:57.283Z,17.20
2018-09-10T06:42:26.703Z,17.40
2018-09-10T06:44:56.142Z,17.50
2018-09-10T06:47:25.605Z,17.60
2018-09-10T06:49:55.293Z,17.70
2018-09-10T06:52:24.863Z,17.80
2018-09-10T06:54:54.322Z,17.80
2018-09-10T06:57:23.708Z,17.70
2018-09-10T06:59:53.429Z,17.80
2018-09-10T07:02:22.940Z,17.90
2018-09-10T07:04:52.383Z,17.80
2018-09-10T07:07:21.865Z,17.70
2018-09-10T07:09:51.519Z,17.80
2018-09-10T07:12:21.148Z,17.90
2018-09-10T07:14:50.571Z,17.90
2018-09-10T07:17:20.451Z,18.00
2018-09-10T07:19:50.001Z,17.90
2018-09-10T07:22:19.403Z,18.00
2018-09-10T07:24:48.779Z,18.10
2018-09-10T07:27:18.290Z,18.10
2018-09-10T07:29:47.667Z,18.10
2018-09-10T07:32:17.260Z,18.20
2018-09-10T07:34:46.768Z,18.10
2018-09-10T07:37:16.651Z,18.10
2018-09-10T07:39:46.043Z,18.00
2018-09-10T07:42:16.535Z,18.00
2018-09-10T07:44:45.887Z,18.00
2018-09-10T07:47:15.357Z,18.00
2018-09-10T07:49:44.726Z,17.90
2018-09-10T07:52:14.131Z,17.90
2018-09-10T07:54:43.559Z,17.90
2018-09-10T07:57:12.859Z,17.80
2018-09-10T07:59:42.324Z,17.80
2018-09-10T08:02:11.903Z,17.70
2018-09-10T08:04:41.482Z,17.90
2018-09-10T08:07:10.854Z,17.80
2018-09-10T08:09:40.453Z,17.80
2018-09-10T08:12:10.002Z,17.90
2018-09-10T08:14:39.548Z,18.00
2018-09-10T08:17:09.152Z,18.00
2018-09-10T08:19:38.615Z,18.10
2018-09-10T08:22:08.161Z,18.20
2018-09-10T08:24:37.600Z,18.20
2018-09-10T08:27:07.076Z,18.30
2018-09-10T08:29:36.654Z,18.20
2018-09-10T08:32:06.286Z,18.30
2018-09-10T08:34:35.673Z,18.30
2018-09-10T08:37:05.590Z,18.30
2018-09-10T08:39:35.312Z,18.30
2018-09-10T08:42:04.729Z,18.40
2018-09-10T08:44:34.301Z,18.40
2018-09-10T08:47:03.712Z,18.60
2018-09-10T08:49:33.250Z,18.70
2018-09-10T08:52:02.801Z,18.80
2018-09-10T08:54:32.480Z,18.70
2018-09-10T08:57:01.822Z,18.80
2018-09-10T08:59:31.244Z,18.80
2018-09-10T09:02:00.842Z,18.90
2018-09-10T09:04:30.460Z,18.90
2018-09-10T09:06:59.858Z,19.00
2018-09-10T09:09:29.274Z,19.00
2018-09-10T09:11:58.719Z,19.00
2018-09-10T09:14:28.267Z,19.10
2018-09-10T09:16:57.880Z,19.00
2018-09-10T09:19:27.428Z,18.90
2018-09-10T09:21:56.923Z,18.90
2018-09-10T09:24:26.536Z,19.00
2018-09-10T09:26:55.990Z,19.10
2018-09-10T09:29:25.572Z,19.20
2018-09-10T09:31:55.187Z,19.30
2018-09-10T09:34:27.632Z,19.60
2018-09-10T09:37:02.628Z,19.70
2018-09-10T09:39:37.809Z,19.90
2018-09-10T09:42:12.655Z,20.10
2018-09-10T09:44:47.812Z,20.30
2018-09-10T09:47:17.228Z,20.30
2018-09-10T09:49:46.856Z,20.40
2018-09-10T09:52:17.189Z,20.40
2018-09-10T09:54:46.801Z,20.30
2018-09-10T09:57:17.224Z,20.20
2018-09-10T09:59:52.361Z,20.20
2018-09-10T10:02:25.111Z,20.30
2018-09-10T10:04:54.664Z,20.30
2018-09-10T10:07:24.230Z,20.40
2018-09-10T10:09:53.743Z,20.30
2018-09-10T10:12:23.134Z,20.30
2018-09-10T10:14:52.947Z,20.40
2018-09-10T10:17:22.435Z,20.40
2018-09-10T10:19:52.714Z,20.40
2018-09-10T10:22:22.280Z,20.30
2018-09-10T10:24:51.686Z,20.30
2018-09-10T10:27:21.137Z,20.30
2018-09-10T10:29:50.506Z,20.40
2018-09-10T10:32:20.053Z,20.40
2018-09-10T10:34:49.476Z,20.50
2018-09-10T10:37:19.351Z,20.40
2018-09-10T10:39:48.894Z,20.40
2018-09-10T10:42:18.627Z,20.30
2018-09-10T10:44:48.174Z,20.20
2018-09-10T10:47:17.713Z,20.20
2018-09-10T10:49:47.142Z,20.30
2018-09-10T10:52:17.500Z,20.30
2018-09-10T10:54:47.111Z,20.40
2018-09-10T10:57:17.333Z,20.40
2018-09-10T10:59:46.811Z,20.40
2018-09-10T11:02:17.336Z,20.40
2018-09-10T11:04:47.271Z,20.50
2018-09-10T11:07:17.363Z,20.50
2018-09-10T11:09:46.778Z,20.60
2018-09-10T11:12:16.195Z,20.70
2018-09-10T11:14:45.708Z,20.80
2018-09-10T11:17:15.392Z,20.80
2018-09-10T11:19:45.250Z,20.80
2018-09-10T11:22:14.761Z,20.90
2018-09-10T11:24:44.251Z,21.00
2018-09-10T11:27:13.827Z,20.90
2018-09-10T11:29:43.276Z,20.80
2018-09-10T11:32:13.122Z,20.80
2018-09-10T11:34:42.837Z,20.80
2018-09-10T11:39:29.383Z,20.80
2018-09-10T11:41:58.977Z,20.80
2018-09-10T11:44:28.347Z,20.90
2018-09-10T11:46:57.751Z,20.80
2018-09-10T11:49:27.291Z,20.80
2018-09-10T11:51:56.857Z,20.80
2018-09-10T11:54:26.550Z,20.70
2018-09-10T11:56:56.060Z,20.70
2018-09-10T11:59:25.829Z,20.60
2018-09-10T12:01:55.400Z,20.70
2018-09-10T12:04:24.982Z,20.70
2018-09-10T12:06:54.430Z,20.70
2018-09-10T12:09:24.003Z,20.70
2018-09-10T12:11:53.709Z,20.70
2018-09-10T12:14:23.284Z,20.80
2018-09-10T12:16:52.831Z,20.80
2018-09-10T12:19:22.320Z,20.80
2018-09-10T12:21:52.106Z,20.80
2018-09-10T12:24:28.141Z,20.70
2018-09-10T12:26:57.496Z,20.50
2018-09-10T12:29:26.883Z,20.10
2018-09-10T12:31:56.402Z,20.00
2018-09-10T12:34:25.897Z,19.90
2018-09-10T12:36:55.286Z,19.80
2018-09-10T12:39:24.777Z,19.80
2018-09-10T12:41:54.336Z,19.80
2018-09-10T12:44:23.831Z,19.90
2018-09-10T12:46:53.356Z,19.90
2018-09-10T12:49:22.835Z,20.00
2018-09-10T12:51:52.357Z,20.00
2018-09-10T12:54:21.672Z,20.10
2018-09-10T12:56:51.172Z,20.10
2018-09-10T12:59:20.516Z,20.20
2018-09-10T13:01:49.864Z,20.20
2018-09-10T13:04:19.387Z,20.20
2018-09-10T13:06:48.675Z,20.30
2018-09-10T13:09:18.080Z,20.30
2018-09-10T13:11:48.170Z,20.40
2018-09-10T13:14:17.672Z,20.50
2018-09-10T13:16:47.280Z,20.50
2018-09-10T13:19:17.855Z,20.60
2018-09-10T13:21:47.803Z,20.70
2018-09-10T13:24:17.911Z,20.80
2018-09-10T13:26:47.472Z,20.90
2018-09-10T13:29:17.884Z,20.90
2018-09-10T13:31:47.391Z,20.90
2018-09-10T13:34:17.676Z,20.90
2018-09-10T13:36:47.236Z,20.90
2018-09-10T13:39:16.544Z,20.90
2018-09-10T13:41:45.888Z,21.00
2018-09-10T13:44:15.145Z,21.00
2018-09-10T13:46:44.432Z,21.00
2018-09-10T13:49:13.748Z,21.10
2018-09-10T13:51:43.238Z,21.10
2018-09-10T13:54:12.748Z,21.00
2018-09-10T13:56:42.234Z,21.10
2018-09-10T13:59:11.610Z,21.10
2018-09-10T14:01:41.131Z,21.10
2018-09-10T14:04:10.423Z,21.10
2018-09-10T14:06:39.940Z,21.10
2018-09-10T14:09:09.352Z,21.00
2018-09-10T14:11:38.844Z,21.00
2018-09-10T14:14:08.581Z,20.90
2018-09-10T14:16:38.119Z,20.90
2018-09-10T14:19:07.478Z,20.90
2018-09-10T14:21:36.916Z,20.90
2018-09-10T14:24:06.599Z,21.00
2018-09-10T14:26:35.893Z,21.10
2018-09-10T14:29:05.236Z,21.10
2018-09-10T14:31:34.888Z,21.00
2018-09-10T14:34:04.580Z,21.00
2018-09-10T14:36:33.959Z,21.00
2018-09-10T14:39:03.644Z,21.00
2018-09-10T14:41:33.076Z,21.00
2018-09-10T14:44:02.583Z,21.00
2018-09-10T14:46:31.952Z,21.00
2018-09-10T14:49:01.454Z,21.10
2018-09-10T14:51:30.781Z,21.10
2018-09-10T14:54:00.372Z,21.10
2018-09-10T14:56:29.805Z,21.10
2018-09-10T14:58:59.336Z,21.10
2018-09-10T15:01:28.820Z,21.20
2018-09-10T15:03:58.317Z,21.30
2018-09-10T15:06:28.210Z,21.30
2018-09-10T15:08:57.536Z,21.30
2018-09-10T15:11:26.887Z,21.30
2018-09-10T15:13:56.221Z,21.30
2018-09-10T15:16:25.535Z,21.30
2018-09-10T15:18:55.044Z,21.20
2018-09-10T15:21:24.427Z,21.10
2018-09-10T15:23:54.024Z,21.10
2018-09-10T15:26:24.203Z,21.00
2018-09-10T15:28:53.576Z,21.00
2018-09-10T15:31:23.142Z,20.90
2018-09-10T15:33:52.631Z,21.00
2018-09-10T15:36:23.140Z,21.00
2018-09-10T15:38:52.425Z,21.00
2018-09-10T15:41:21.936Z,21.00
2018-09-10T15:43:51.528Z,21.00
2018-09-10T15:46:20.864Z,20.90
2018-09-10T15:48:50.199Z,20.90
2018-09-10T15:51:19.726Z,20.90
2018-09-10T15:53:49.272Z,20.80
2018-09-10T15:56:18.590Z,20.80
2018-09-10T15:58:48.144Z,20.70
2018-09-10T16:01:18.428Z,20.70
2018-09-10T16:03:48.012Z,20.70
2018-09-10T16:06:18.606Z,20.60
2018-09-10T16:08:48.025Z,20.60
2018-09-10T16:11:18.687Z,20.60
2018-09-10T16:13:48.487Z,20.60
2018-09-10T16:16:18.580Z,20.60
2018-09-10T16:18:48.307Z,20.60
2018-09-10T16:21:18.873Z,20.50
2018-09-10T16:23:48.463Z,20.40
2018-09-10T16:26:19.950Z,20.40
2018-09-10T16:28:49.336Z,20.20
2018-09-10T16:31:19.045Z,20.10
2018-09-10T16:33:48.721Z,20.00
2018-09-10T16:36:18.838Z,19.90
2018-09-10T16:38:48.273Z,19.80
2018-09-10T16:41:18.645Z,19.70
2018-09-10T16:43:48.164Z,19.70
2018-09-10T16:46:18.419Z,19.70
2018-09-10T16:48:49.145Z,19.70
2018-09-10T16:51:18.708Z,19.70
2018-09-10T16:53:48.241Z,19.60
2018-09-10T16:56:18.592Z,19.60
2018-09-10T17:03:42.964Z,19.60
2018-09-10T17:06:12.296Z,19.50
2018-09-10T17:08:42.055Z,19.40
2018-09-10T17:11:11.393Z,19.40
2018-09-10T17:13:40.896Z,19.30
2018-09-10T17:16:10.207Z,19.20
2018-09-10T17:18:39.726Z,19.20
2018-09-10T17:21:09.279Z,19.20
2018-09-10T17:23:38.851Z,19.10
2018-09-10T17:26:08.356Z,19.00
2018-09-10T17:28:37.812Z,19.00
2018-09-10T17:31:07.347Z,19.00
2018-09-10T17:33:36.720Z,18.90
2018-09-10T17:36:06.284Z,18.90
2018-09-10T17:38:35.575Z,18.90
2018-09-10T17:41:05.159Z,18.80
2018-09-10T17:43:34.580Z,18.80
2018-09-10T17:46:03.949Z,18.70
2018-09-10T17:48:33.243Z,18.60
2018-09-10T17:51:02.547Z,18.50
2018-09-10T17:53:31.904Z,18.50
2018-09-10T17:56:01.363Z,18.50
2018-09-10T17:58:30.616Z,18.50
2018-09-10T18:01:00.112Z,18.40
2018-09-10T18:03:29.652Z,18.40
2018-09-10T18:05:59.101Z,18.40
2018-09-10T18:08:28.576Z,18.30
2018-09-10T18:10:58.091Z,18.30
2018-09-10T18:13:27.493Z,18.20
2018-09-10T18:15:56.980Z,18.20
2018-09-10T18:18:26.366Z,18.10
2018-09-10T18:20:55.883Z,18.00
2018-09-10T18:23:25.287Z,17.90
2018-09-10T18:25:54.635Z,17.80
2018-09-10T18:28:23.963Z,17.70
2018-09-10T18:30:53.440Z,17.60
2018-09-10T18:33:22.796Z,17.60
2018-09-10T18:35:52.256Z,17.50
2018-09-10T18:38:21.719Z,17.40
2018-09-10T18:40:51.320Z,17.40
2018-09-10T18:43:20.872Z,17.30
2018-09-10T18:45:50.307Z,17.20
2018-09-10T18:48:19.672Z,17.10
2018-09-10T18:50:49.227Z,17.00
2018-09-10T18:53:19.076Z,16.90
2018-09-10T18:55:48.597Z,16.80
2018-09-10T18:58:18.906Z,16.80
2018-09-10T19:00:48.446Z,16.70
2018-09-10T19:03:17.813Z,16.60
2018-09-10T19:05:47.197Z,16.50
2018-09-10T19:08:16.804Z,16.40
2018-09-10T19:10:46.435Z,16.40
2018-09-10T19:13:15.986Z,16.30
2018-09-10T19:15:45.568Z,16.20
2018-09-10T19:18:15.407Z,16.10
2018-09-10T19:20:44.896Z,16.00
2018-09-10T19:23:14.449Z,16.00
2018-09-10T19:25:43.813Z,16.00
2018-09-10T19:28:13.235Z,15.90
2018-09-10T19:30:42.608Z,15.90
2018-09-10T19:33:12.190Z,15.90
2018-09-10T19:35:41.741Z,15.80
2018-09-10T19:38:11.279Z,15.80
2018-09-10T19:40:40.863Z,15.70
2018-09-10T19:43:10.357Z,15.70
2018-09-10T19:45:39.881Z,15.60
2018-09-10T19:48:09.290Z,15.60
2018-09-10T19:50:38.861Z,15.50
2018-09-10T19:53:08.759Z,15.50
2018-09-10T19:55:38.308Z,15.50
2018-09-10T19:58:07.877Z,15.50
2018-09-10T20:00:37.420Z,15.50
2018-09-10T20:03:06.928Z,15.50
2018-09-10T20:05:36.343Z,15.50
2018-09-10T20:08:06.322Z,15.50
2018-09-10T20:10:35.893Z,15.50
2018-09-10T20:13:05.415Z,15.60
2018-09-10T20:15:34.811Z,15.60
2018-09-10T20:18:04.376Z,15.70
2018-09-10T20:20:33.946Z,15.70
2018-09-10T20:23:03.443Z,15.70
2018-09-10T20:25:32.848Z,15.70
2018-09-10T20:28:02.183Z,15.70
2018-09-10T20:30:31.668Z,15.70
2018-09-10T20:33:00.987Z,15.70
2018-09-10T20:35:30.518Z,15.60
2018-09-10T20:38:00.080Z,15.60
2018-09-10T20:40:29.592Z,15.60
2018-09-10T20:42:59.153Z,15.60
2018-09-10T20:45:28.666Z,15.60
2018-09-10T20:47:58.379Z,15.60
2018-09-10T20:50:27.871Z,15.50
2018-09-10T20:52:57.400Z,15.50
2018-09-10T20:55:26.841Z,15.50
2018-09-10T20:57:56.412Z,15.50
2018-09-10T21:00:25.832Z,15.40
2018-09-10T21:02:55.187Z,15.40
2018-09-10T21:05:24.596Z,15.40
2018-09-10T21:07:53.932Z,15.40
2018-09-10T21:10:23.454Z,15.40
2018-09-10T21:12:53.085Z,15.40
2018-09-10T21:15:22.525Z,15.30
2018-09-10T21:17:52.022Z,15.30
2018-09-10T21:20:21.600Z,15.40
2018-09-10T21:22:51.028Z,15.40
2018-09-10T21:25:20.452Z,15.40
2018-09-10T21:27:49.795Z,15.40
2018-09-10T21:30:19.710Z,15.40
2018-09-10T21:32:49.027Z,15.50
2018-09-10T21:35:19.479Z,15.50
2018-09-10T21:37:48.880Z,15.50
2018-09-10T21:45:17.214Z,15.60
2018-09-10T21:47:46.639Z,15.60
2018-09-10T21:50:15.936Z,15.70
2018-09-10T21:52:45.315Z,15.70
2018-09-10T21:55:14.768Z,15.70
2018-09-10T21:57:44.112Z,15.70
2018-09-10T22:00:13.564Z,15.70
2018-09-10T22:02:42.992Z,15.80
2018-09-10T22:05:12.541Z,15.80
2018-09-10T22:07:41.940Z,15.80
2018-09-10T22:10:11.418Z,15.90
2018-09-10T22:12:40.828Z,15.80
2018-09-10T22:15:10.429Z,15.90
2018-09-10T22:17:39.996Z,15.90
2018-09-10T22:20:09.511Z,15.90
2018-09-10T22:22:38.987Z,15.90
2018-09-10T22:25:08.364Z,15.90
2018-09-10T22:27:37.687Z,16.00
2018-09-10T22:30:07.136Z,16.00
2018-09-10T22:32:38.363Z,16.00
2018-09-10T22:35:10.052Z,16.00
2018-09-10T22:37:41.859Z,16.00
2018-09-10T22:40:11.341Z,16.00
2018-09-10T22:42:40.923Z,16.10
2018-09-10T22:45:10.272Z,16.10
2018-09-10T22:47:39.721Z,16.10
2018-09-10T22:50:09.337Z,16.10
2018-09-10T22:52:38.730Z,16.00
2018-09-10T22:55:08.452Z,15.90
2018-09-10T22:57:37.840Z,15.90
2018-09-10T23:00:07.934Z,15.90
2018-09-10T23:02:37.480Z,15.80
2018-09-10T23:05:06.939Z,15.80
2018-09-10T23:07:36.291Z,15.80
2018-09-10T23:10:06.513Z,15.70
2018-09-10T23:12:35.853Z,15.70
2018-09-10T23:15:05.404Z,15.60
2018-09-10T23:17:34.723Z,15.60
2018-09-10T23:20:04.139Z,15.60
2018-09-10T23:22:33.647Z,15.50
2018-09-10T23:25:03.176Z,15.50
2018-09-10T23:27:32.691Z,15.40
2018-09-10T23:30:02.203Z,15.40
2018-09-10T23:32:31.569Z,15.40
2018-09-10T23:35:01.226Z,15.40
2018-09-10T23:37:30.778Z,15.40
2018-09-10T23:40:00.225Z,15.40
2018-09-10T23:42:29.749Z,15.40
2018-09-10T23:44:59.696Z,15.30
2018-09-10T23:47:29.232Z,15.30
2018-09-10T23:49:58.778Z,15.30
2018-09-10T23:52:28.284Z,15.20
2018-09-10T23:54:57.679Z,15.20
2018-09-10T23:57:27.062Z,15.20
2018-09-10T23:59:56.581Z,15.20
